METAR Data

Data at: 0117 UTC 16 Jan 2019

METAR for:KLAX (Los Angeles Intl, CA, US)
Text:KLAX 160053Z 09010KT 4SM +RA BR BKN022 OVC029 12/10 A3001 RMK AO2 SLP163 P0010 T01170100
Temperature: 11.7°C ( 53°F)
Dewpoint: 10.0°C ( 50°F) [RH = 89%]
Pressure (altimeter):30.01 inches Hg (1016.3 mb) [Sea level pressure: 1016.3 mb]
Winds:from the E (90 degrees) at 12 MPH (10 knots; 5.1 m/s)
Visibility: 4 sm ( 6 km)
Ceiling:2200 feet AGL
Clouds: broken clouds at 2200 feet AGL, overcast cloud deck at 2900 feet AGL
Weather:+RA BR (heavy rain, mist)